createdAt,value
2022-08-27T00:00:14.745Z,21.25
2022-08-27T00:01:14.108Z,21.25
2022-08-27T00:02:14.239Z,21.24
2022-08-27T00:03:14.722Z,21.25
2022-08-27T00:04:14.746Z,21.25
2022-08-27T00:05:14.021Z,21.25
2022-08-27T00:06:14.040Z,21.26
2022-08-27T00:07:14.029Z,21.25
2022-08-27T00:08:14.044Z,21.25
2022-08-27T00:09:14.646Z,21.24
2022-08-27T00:10:14.006Z,21.24
2022-08-27T00:11:14.623Z,21.24
2022-08-27T00:12:14.615Z,21.23
2022-08-27T00:13:13.968Z,21.23
2022-08-27T00:14:13.947Z,21.23
2022-08-27T00:15:14.589Z,21.24
2022-08-27T00:16:13.974Z,21.25
2022-08-27T00:17:13.974Z,21.25
2022-08-27T00:18:13.894Z,21.26
2022-08-27T00:19:13.910Z,21.24
2022-08-27T00:20:14.597Z,21.24
2022-08-27T00:21:14.531Z,21.23
2022-08-27T00:22:13.855Z,21.24
2022-08-27T00:23:14.512Z,21.23
2022-08-27T00:24:14.485Z,21.24
2022-08-27T00:25:15.256Z,21.25
2022-08-27T00:26:14.471Z,21.26
2022-08-27T00:27:13.776Z,21.25
2022-08-27T00:28:13.837Z,21.25
2022-08-27T00:29:14.431Z,21.26
2022-08-27T00:30:14.427Z,21.27
2022-08-27T00:31:14.437Z,21.27
2022-08-27T00:32:13.832Z,21.28
2022-08-27T00:33:13.819Z,21.28
2022-08-27T00:34:13.753Z,21.27
2022-08-27T00:35:13.718Z,21.27
2022-08-27T00:36:14.370Z,21.26
2022-08-27T00:37:16.128Z,21.26
2022-08-27T00:38:14.313Z,21.25
2022-08-27T00:39:14.673Z,21.24
2022-08-27T00:40:14.344Z,21.24
2022-08-27T00:41:18.325Z,21.24
2022-08-27T00:42:13.666Z,21.24
2022-08-27T00:43:14.287Z,21.24
2022-08-27T00:44:13.641Z,21.25
2022-08-27T00:45:14.265Z,21.26
2022-08-27T00:46:13.630Z,21.26
2022-08-27T00:47:13.585Z,21.26
2022-08-27T00:48:14.231Z,21.27
2022-08-27T00:49:14.228Z,21.27
2022-08-27T00:50:13.616Z,21.28
2022-08-27T00:51:14.206Z,21.27
2022-08-27T00:52:13.547Z,21.27
2022-08-27T00:53:14.177Z,21.27
2022-08-27T00:54:18.944Z,21.27
2022-08-27T00:55:13.548Z,21.27
2022-08-27T00:56:14.138Z,21.27
2022-08-27T00:57:13.499Z,21.27
2022-08-27T00:58:13.472Z,21.28
2022-08-27T00:59:14.121Z,21.28
2022-08-27T01:00:14.115Z,21.28
2022-08-27T01:01:13.537Z,21.29
2022-08-27T01:02:14.088Z,21.29
2022-08-27T01:03:13.582Z,21.29
2022-08-27T01:04:13.410Z,21.29
2022-08-27T01:05:13.396Z,21.30
2022-08-27T01:06:16.028Z,21.29
2022-08-27T01:07:14.032Z,21.28
2022-08-27T01:08:13.995Z,21.28
2022-08-27T01:09:14.011Z,21.27
2022-08-27T01:10:13.322Z,21.26
2022-08-27T01:11:13.994Z,21.25
2022-08-27T01:12:14.022Z,21.24
2022-08-27T01:13:13.350Z,21.22
2022-08-27T01:14:13.305Z,21.19
2022-08-27T01:15:16.930Z,21.17
2022-08-27T01:16:15.238Z,21.14
2022-08-27T01:17:14.184Z,21.11
2022-08-27T01:18:13.928Z,21.10
2022-08-27T01:19:13.940Z,21.07
2022-08-27T01:20:13.880Z,21.06
2022-08-27T01:21:13.226Z,21.02
2022-08-27T01:22:21.631Z,21.01
2022-08-27T01:23:15.194Z,20.99
2022-08-27T01:24:13.178Z,20.98
2022-08-27T01:25:13.178Z,20.98
2022-08-27T01:26:15.630Z,20.97
2022-08-27T01:27:13.868Z,20.96
2022-08-27T01:28:13.950Z,20.94
2022-08-27T01:29:13.799Z,20.94
2022-08-27T01:30:13.811Z,20.93
2022-08-27T01:31:13.164Z,20.93
2022-08-27T01:32:13.771Z,20.91
2022-08-27T01:33:13.098Z,20.91
2022-08-27T01:34:13.769Z,20.91
2022-08-27T01:35:13.071Z,20.90
2022-08-27T01:36:13.049Z,20.89
2022-08-27T01:37:13.054Z,20.87
2022-08-27T01:38:21.637Z,20.85
2022-08-27T01:39:14.051Z,20.84
2022-08-27T01:40:13.833Z,20.83
2022-08-27T01:41:13.676Z,20.81
2022-08-27T01:42:12.973Z,20.79
2022-08-27T01:43:13.656Z,20.78
2022-08-27T01:44:12.997Z,20.78
2022-08-27T01:45:13.643Z,20.78
2022-08-27T01:46:13.652Z,20.78
2022-08-27T01:47:13.617Z,20.76
2022-08-27T01:48:12.924Z,20.76
2022-08-27T01:49:12.963Z,20.74
2022-08-27T01:50:13.548Z,20.74
2022-08-27T01:51:13.632Z,20.72
2022-08-27T01:52:12.926Z,20.72
2022-08-27T01:53:12.867Z,20.70
2022-08-27T01:54:13.538Z,20.70
2022-08-27T01:55:12.876Z,20.71
2022-08-27T01:56:13.487Z,20.70
2022-08-27T01:57:15.258Z,20.70
2022-08-27T01:58:13.479Z,20.71
2022-08-27T01:59:12.798Z,20.71
2022-08-27T02:00:13.525Z,20.70
2022-08-27T02:01:12.864Z,20.70
2022-08-27T02:02:12.875Z,20.70
2022-08-27T02:03:12.761Z,20.69
2022-08-27T02:04:13.410Z,20.69
2022-08-27T02:05:15.189Z,20.69
2022-08-27T02:06:13.399Z,20.70
2022-08-27T02:07:13.403Z,20.71
2022-08-27T02:08:13.366Z,20.72
2022-08-27T02:09:12.761Z,20.73
2022-08-27T02:10:12.670Z,20.74
2022-08-27T02:11:12.675Z,20.75
2022-08-27T02:12:13.332Z,20.78
2022-08-27T02:13:13.331Z,20.77
2022-08-27T02:14:13.413Z,20.78
2022-08-27T02:15:13.305Z,20.77
2022-08-27T02:16:13.325Z,20.78
2022-08-27T02:17:12.622Z,20.78
2022-08-27T02:18:12.763Z,20.78
2022-08-27T02:19:13.269Z,20.78
2022-08-27T02:20:12.635Z,20.77
2022-08-27T02:21:12.564Z,20.77
2022-08-27T02:22:12.543Z,20.77
2022-08-27T02:23:13.214Z,20.77
2022-08-27T02:24:13.199Z,20.77
2022-08-27T02:25:12.516Z,20.76
2022-08-27T02:26:13.159Z,20.75
2022-08-27T02:27:13.170Z,20.76
2022-08-27T02:28:12.595Z,20.74
2022-08-27T02:29:13.153Z,20.73
2022-08-27T02:30:13.146Z,20.72
2022-08-27T02:31:12.514Z,20.71
2022-08-27T02:32:17.702Z,20.71
2022-08-27T02:33:14.118Z,20.70
2022-08-27T02:34:12.442Z,20.70
2022-08-27T02:35:12.453Z,20.69
2022-08-27T02:36:13.092Z,20.68
2022-08-27T02:37:14.851Z,20.67
2022-08-27T02:38:13.387Z,20.66
2022-08-27T02:39:12.369Z,20.66
2022-08-27T02:40:13.105Z,20.66
2022-08-27T02:41:13.011Z,20.66
2022-08-27T02:42:12.349Z,20.65
2022-08-27T02:43:16.077Z,20.66
2022-08-27T02:44:15.381Z,20.65
2022-08-27T02:45:12.969Z,20.66
2022-08-27T02:46:13.079Z,20.65
2022-08-27T02:47:12.952Z,20.66
2022-08-27T02:48:13.013Z,20.66
2022-08-27T02:49:12.262Z,20.67
2022-08-27T02:50:12.308Z,20.67
2022-08-27T02:51:12.914Z,20.68
2022-08-27T02:52:12.287Z,20.69
2022-08-27T02:53:12.222Z,20.70
2022-08-27T02:54:12.874Z,20.69
2022-08-27T02:55:12.208Z,20.70
2022-08-27T02:56:14.185Z,20.70
2022-08-27T02:57:14.574Z,20.70
2022-08-27T02:58:12.274Z,20.70
2022-08-27T02:59:12.192Z,20.69
2022-08-27T03:00:12.812Z,20.69
2022-08-27T03:01:13.952Z,20.68
2022-08-27T03:02:12.233Z,20.68
2022-08-27T03:03:12.778Z,20.69
2022-08-27T03:04:12.117Z,20.70
2022-08-27T03:05:12.761Z,20.70
2022-08-27T03:06:12.770Z,20.70
2022-08-27T03:07:18.610Z,20.71
2022-08-27T03:08:13.709Z,20.70
2022-08-27T03:09:12.114Z,20.70
2022-08-27T03:10:12.970Z,20.70
2022-08-27T03:11:12.693Z,20.70
2022-08-27T03:12:12.066Z,20.69
2022-08-27T03:13:12.672Z,20.69
2022-08-27T03:14:12.671Z,20.69
2022-08-27T03:15:13.421Z,20.69
2022-08-27T03:16:12.672Z,20.69
2022-08-27T03:17:12.634Z,20.69
2022-08-27T03:18:12.175Z,20.70
2022-08-27T03:19:11.948Z,20.71
2022-08-27T03:20:11.941Z,20.71
2022-08-27T03:21:12.585Z,20.71
2022-08-27T03:22:11.903Z,20.70
2022-08-27T03:23:12.571Z,20.71
2022-08-27T03:24:14.724Z,20.70
2022-08-27T03:25:12.546Z,20.70
2022-08-27T03:26:12.532Z,20.70
2022-08-27T03:27:12.514Z,20.70
2022-08-27T03:28:22.813Z,20.69
2022-08-27T03:29:14.760Z,20.69
2022-08-27T03:30:11.813Z,20.68
2022-08-27T03:31:11.865Z,20.67
2022-08-27T03:32:12.454Z,20.67
2022-08-27T03:33:11.789Z,20.68
2022-08-27T03:34:12.456Z,20.68
2022-08-27T03:35:12.442Z,20.68
2022-08-27T03:36:12.425Z,20.69
2022-08-27T03:37:12.417Z,20.68
2022-08-27T03:38:12.409Z,20.68
2022-08-27T03:39:11.750Z,20.68
2022-08-27T03:40:13.514Z,20.68
2022-08-27T03:41:11.689Z,20.68
2022-08-27T03:42:12.357Z,20.70
2022-08-27T03:43:11.720Z,20.70
2022-08-27T03:44:11.697Z,20.72
2022-08-27T03:45:13.329Z,20.72
2022-08-27T03:46:11.746Z,20.73
2022-08-27T03:47:11.634Z,20.74
2022-08-27T03:48:11.752Z,20.75
2022-08-27T03:49:13.305Z,20.76
2022-08-27T03:50:11.755Z,20.76
2022-08-27T03:51:11.610Z,20.77
2022-08-27T03:52:12.255Z,20.78
2022-08-27T03:53:12.253Z,20.78
2022-08-27T03:54:11.583Z,20.79
2022-08-27T03:55:14.006Z,20.78
2022-08-27T03:56:12.212Z,20.76
2022-08-27T03:57:12.213Z,20.76
2022-08-27T03:58:11.737Z,20.76
2022-08-27T03:59:11.726Z,20.76
2022-08-27T04:00:12.165Z,20.76
2022-08-27T04:01:12.155Z,20.75
2022-08-27T04:02:11.665Z,20.75
2022-08-27T04:03:11.545Z,20.75
2022-08-27T04:04:12.128Z,20.75
2022-08-27T04:05:11.453Z,20.76
2022-08-27T04:06:12.448Z,20.76
2022-08-27T04:07:11.414Z,20.77
2022-08-27T04:08:12.241Z,20.77
2022-08-27T04:09:11.424Z,20.78
2022-08-27T04:10:11.398Z,20.79
2022-08-27T04:11:11.397Z,20.79
2022-08-27T04:12:12.027Z,20.79
2022-08-27T04:13:11.363Z,20.80
2022-08-27T04:14:26.350Z,20.79
2022-08-27T04:15:12.331Z,20.79
2022-08-27T04:16:12.306Z,20.79
2022-08-27T04:17:11.352Z,20.80
2022-08-27T04:18:12.203Z,20.80
2022-08-27T04:19:11.960Z,20.81
2022-08-27T04:20:34.068Z,20.81
2022-08-27T04:21:12.943Z,20.81
2022-08-27T04:22:11.281Z,20.81
2022-08-27T04:23:11.924Z,20.81
2022-08-27T04:24:11.912Z,20.82
2022-08-27T04:25:11.906Z,20.82
2022-08-27T04:26:11.871Z,20.82
2022-08-27T04:27:11.204Z,20.83
2022-08-27T04:28:11.448Z,20.82
2022-08-27T04:29:11.173Z,20.83
2022-08-27T04:30:11.843Z,20.82
2022-08-27T04:31:13.903Z,20.81
2022-08-27T04:32:12.005Z,20.81
2022-08-27T04:33:11.804Z,20.81
2022-08-27T04:34:11.806Z,20.81
2022-08-27T04:35:11.795Z,20.81
2022-08-27T04:36:11.113Z,20.81
2022-08-27T04:37:11.117Z,20.82
2022-08-27T04:38:12.027Z,20.81
2022-08-27T04:39:11.754Z,20.79
2022-08-27T04:40:11.091Z,20.79
2022-08-27T04:41:11.055Z,20.78
2022-08-27T04:42:11.717Z,20.78
2022-08-27T04:43:11.162Z,20.77
2022-08-27T04:44:13.987Z,20.76
2022-08-27T04:45:11.018Z,20.75
2022-08-27T04:46:11.048Z,20.75
2022-08-27T04:47:11.668Z,20.74
2022-08-27T04:48:11.768Z,20.72
2022-08-27T04:49:10.970Z,20.72
2022-08-27T04:50:11.057Z,20.71
2022-08-27T04:51:13.086Z,20.70
2022-08-27T04:52:13.889Z,20.70
2022-08-27T04:53:10.925Z,20.69
2022-08-27T04:54:10.970Z,20.69
2022-08-27T04:55:10.935Z,20.69
2022-08-27T04:56:14.306Z,20.69
2022-08-27T04:57:10.892Z,20.69
2022-08-27T04:58:11.742Z,20.70
2022-08-27T04:59:11.531Z,20.71
2022-08-27T05:00:10.856Z,20.71
2022-08-27T05:01:11.638Z,20.71
2022-08-27T05:02:11.493Z,20.72
2022-08-27T05:03:10.814Z,20.71
2022-08-27T05:04:10.866Z,20.71
2022-08-27T05:05:15.819Z,20.70
2022-08-27T05:06:12.941Z,20.71
2022-08-27T05:07:10.767Z,20.71
2022-08-27T05:08:11.669Z,20.70
2022-08-27T05:09:10.736Z,20.70
2022-08-27T05:10:11.415Z,20.68
2022-08-27T05:11:11.415Z,20.67
2022-08-27T05:12:11.401Z,20.66
2022-08-27T05:13:12.669Z,20.66
2022-08-27T05:14:11.367Z,20.65
2022-08-27T05:15:10.700Z,20.65
2022-08-27T05:16:10.771Z,20.65
2022-08-27T05:17:11.354Z,20.64
2022-08-27T05:18:11.530Z,20.63
2022-08-27T05:19:10.671Z,20.64
2022-08-27T05:20:10.681Z,20.65
2022-08-27T05:21:12.564Z,20.65
2022-08-27T05:22:11.283Z,20.67
2022-08-27T05:23:11.302Z,20.67
2022-08-27T05:24:11.269Z,20.68
2022-08-27T05:25:10.634Z,20.69
2022-08-27T05:26:10.684Z,20.71
2022-08-27T05:27:12.545Z,20.73
2022-08-27T05:28:11.447Z,20.74
2022-08-27T05:29:11.220Z,20.76
2022-08-27T05:30:11.200Z,20.77
2022-08-27T05:31:10.555Z,20.79
2022-08-27T05:32:11.164Z,20.78
2022-08-27T05:33:12.442Z,20.78
2022-08-27T05:34:16.899Z,20.79
2022-08-27T05:35:15.168Z,20.79
2022-08-27T05:36:10.468Z,20.79
2022-08-27T05:37:10.441Z,20.79
2022-08-27T05:38:10.655Z,20.78
2022-08-27T05:39:10.436Z,20.76
2022-08-27T05:40:10.695Z,20.75
2022-08-27T05:41:10.430Z,20.73
2022-08-27T05:42:11.072Z,20.73
2022-08-27T05:43:11.193Z,20.73
2022-08-27T05:45:11.395Z,20.74
2022-08-27T05:46:11.105Z,20.76
2022-08-27T05:47:10.349Z,20.76
2022-08-27T05:48:11.213Z,20.78
2022-08-27T05:49:10.997Z,20.80
2022-08-27T05:50:10.967Z,20.82
2022-08-27T05:51:10.335Z,20.84
2022-08-27T05:52:10.992Z,20.85
2022-08-27T05:53:10.949Z,20.88
2022-08-27T05:54:10.944Z,20.91
2022-08-27T05:55:10.279Z,20.93
2022-08-27T05:56:10.299Z,20.96
2022-08-27T05:57:10.910Z,20.98
2022-08-27T05:58:11.095Z,21.02
2022-08-27T05:59:10.899Z,21.04
2022-08-27T06:00:14.723Z,21.06
2022-08-27T06:01:11.933Z,21.07
2022-08-27T06:02:10.918Z,21.09
2022-08-27T06:03:10.195Z,21.11
2022-08-27T06:04:10.239Z,21.13
2022-08-27T06:05:12.211Z,21.17
2022-08-27T06:06:10.814Z,21.21
2022-08-27T06:07:10.187Z,21.25
2022-08-27T06:08:11.237Z,21.29
2022-08-27T06:09:10.785Z,21.34
2022-08-27T06:10:10.164Z,21.38
2022-08-27T06:11:10.754Z,21.43
2022-08-27T06:12:10.744Z,21.47
2022-08-27T06:13:10.795Z,21.52
2022-08-27T06:14:10.078Z,21.56
2022-08-27T06:15:10.723Z,21.63
2022-08-27T06:16:10.903Z,21.70
2022-08-27T06:17:10.044Z,21.77
2022-08-27T06:18:11.065Z,21.85
2022-08-27T06:19:10.659Z,21.94
2022-08-27T06:20:10.680Z,22.03
2022-08-27T06:21:10.015Z,22.10
2022-08-27T06:22:10.937Z,22.18
2022-08-27T06:23:10.005Z,22.22
2022-08-27T06:24:10.639Z,22.28
2022-08-27T06:25:10.038Z,22.32
2022-08-27T06:26:10.599Z,22.40
2022-08-27T06:27:10.598Z,22.49
2022-08-27T06:28:10.065Z,22.61
2022-08-27T06:29:10.582Z,22.73
2022-08-27T06:30:13.616Z,22.86
2022-08-27T06:31:12.532Z,22.99
2022-08-27T06:32:09.862Z,23.13
2022-08-27T06:33:10.522Z,23.40
2022-08-27T06:34:10.521Z,24.09
2022-08-27T06:35:09.841Z,24.73
2022-08-27T06:36:10.493Z,25.20
2022-08-27T06:37:10.474Z,25.46
2022-08-27T06:38:10.650Z,25.68
2022-08-27T06:39:09.894Z,25.78
2022-08-27T06:40:10.503Z,26.03
2022-08-27T06:41:23.142Z,26.03
2022-08-27T06:42:10.804Z,26.01
2022-08-27T06:43:10.414Z,25.98
2022-08-27T06:44:09.771Z,25.94
2022-08-27T06:45:09.734Z,25.89
2022-08-27T06:46:09.791Z,25.82
2022-08-27T06:47:10.373Z,25.73
2022-08-27T06:48:09.918Z,25.68
2022-08-27T06:49:09.742Z,25.64
2022-08-27T06:50:10.338Z,25.60
2022-08-27T06:51:09.658Z,25.53
2022-08-27T06:52:10.318Z,25.49
2022-08-27T06:53:09.653Z,25.45
2022-08-27T06:54:10.368Z,25.42
2022-08-27T06:55:10.296Z,25.37
2022-08-27T06:56:09.609Z,25.31
2022-08-27T06:57:10.266Z,25.23
2022-08-27T06:58:10.396Z,25.17
2022-08-27T06:59:11.487Z,25.10
2022-08-27T07:00:10.227Z,25.03
2022-08-27T07:01:10.262Z,25.00
2022-08-27T07:02:09.574Z,24.94
2022-08-27T07:03:09.525Z,24.88
2022-08-27T07:04:09.629Z,24.83
2022-08-27T07:05:10.179Z,24.79
2022-08-27T07:06:10.153Z,24.74
2022-08-27T07:07:11.949Z,24.70
2022-08-27T07:08:09.560Z,24.68
2022-08-27T07:09:10.146Z,24.67
2022-08-27T07:10:10.123Z,24.67
2022-08-27T07:11:10.155Z,24.64
2022-08-27T07:12:10.085Z,24.63
2022-08-27T07:13:09.415Z,24.63
2022-08-27T07:14:09.406Z,24.62
2022-08-27T07:15:09.418Z,24.65
2022-08-27T07:16:09.463Z,24.66
2022-08-27T07:17:11.176Z,24.71
2022-08-27T07:18:10.483Z,24.79
2022-08-27T07:19:10.655Z,24.89
2022-08-27T07:20:09.369Z,25.01
2022-08-27T07:21:10.009Z,25.16
2022-08-27T07:22:09.987Z,25.32
2022-08-27T07:23:11.203Z,25.51
2022-08-27T07:24:09.956Z,25.65
2022-08-27T07:25:09.305Z,25.80
2022-08-27T07:26:09.297Z,25.84
2022-08-27T07:27:09.947Z,25.77
2022-08-27T07:28:10.063Z,25.67
2022-08-27T07:29:09.922Z,25.56
2022-08-27T07:30:09.894Z,25.45
2022-08-27T07:31:09.931Z,25.31
2022-08-27T07:32:09.254Z,25.15
2022-08-27T07:33:09.869Z,25.01
2022-08-27T07:34:09.860Z,24.89
2022-08-27T07:35:09.167Z,24.78
2022-08-27T07:36:09.281Z,24.67
2022-08-27T07:37:09.826Z,24.57
2022-08-27T07:38:09.987Z,24.47
2022-08-27T07:39:09.757Z,24.39
2022-08-27T07:40:09.856Z,24.32
2022-08-27T07:41:09.115Z,24.28
2022-08-27T07:42:09.754Z,24.24
2022-08-27T07:43:09.105Z,24.18
2022-08-27T07:44:09.751Z,24.13
2022-08-27T07:45:09.764Z,24.09
2022-08-27T07:46:09.116Z,24.07
2022-08-27T07:47:09.730Z,24.05
2022-08-27T07:48:09.916Z,24.03
2022-08-27T07:49:09.716Z,24.01
2022-08-27T07:50:09.757Z,23.98
2022-08-27T07:51:09.678Z,23.95
2022-08-27T07:52:08.998Z,23.92
2022-08-27T07:53:09.659Z,23.90
2022-08-27T07:54:09.036Z,23.89
2022-08-27T07:55:09.639Z,23.87
2022-08-27T07:56:09.625Z,23.85
2022-08-27T07:57:09.620Z,23.81
2022-08-27T07:58:11.482Z,23.77
2022-08-27T07:59:09.588Z,23.74
2022-08-27T08:00:09.560Z,23.72
2022-08-27T08:01:08.971Z,23.72
2022-08-27T08:02:09.591Z,23.71
2022-08-27T08:03:09.549Z,23.71
2022-08-27T08:04:08.870Z,23.70
2022-08-27T08:05:09.530Z,23.67
2022-08-27T08:06:08.894Z,23.62
2022-08-27T08:07:09.512Z,23.57
2022-08-27T08:08:09.568Z,23.52
2022-08-27T08:09:11.424Z,23.49
2022-08-27T08:10:11.234Z,23.46
2022-08-27T08:11:08.803Z,23.45
2022-08-27T08:12:09.464Z,23.47
2022-08-27T08:13:09.446Z,23.51
2022-08-27T08:14:09.434Z,23.59
2022-08-27T08:15:08.764Z,23.71
2022-08-27T08:16:08.747Z,23.83
2022-08-27T08:17:10.346Z,24.01
2022-08-27T08:18:08.762Z,24.17
2022-08-27T08:19:08.734Z,24.34
2022-08-27T08:20:21.758Z,24.50
2022-08-27T08:21:10.363Z,24.66
2022-08-27T08:22:08.750Z,24.82
2022-08-27T08:23:09.902Z,24.98
2022-08-27T08:24:08.810Z,25.14
2022-08-27T08:25:08.680Z,25.35
2022-08-27T08:26:08.638Z,25.58
2022-08-27T08:27:08.779Z,25.78
2022-08-27T08:28:08.640Z,25.97
2022-08-27T08:29:09.281Z,26.15
2022-08-27T08:30:09.639Z,26.28
2022-08-27T08:31:08.601Z,26.38
2022-08-27T08:32:09.345Z,26.48
2022-08-27T08:33:08.554Z,26.56
2022-08-27T08:34:08.553Z,26.59
2022-08-27T08:35:08.529Z,26.58
2022-08-27T08:36:09.570Z,26.59
2022-08-27T08:37:09.192Z,26.61
2022-08-27T08:38:09.391Z,26.63
2022-08-27T08:39:09.164Z,26.65
2022-08-27T08:40:09.195Z,26.69
2022-08-27T08:41:09.133Z,26.76
2022-08-27T08:42:09.126Z,26.89
2022-08-27T08:43:09.122Z,27.04
2022-08-27T08:44:08.445Z,27.16
2022-08-27T08:45:09.096Z,27.26
2022-08-27T08:46:10.924Z,27.29
2022-08-27T08:47:08.396Z,27.25
2022-08-27T08:48:08.453Z,27.16
2022-08-27T08:49:09.145Z,27.06
2022-08-27T08:50:08.541Z,26.95
2022-08-27T08:51:08.956Z,26.88
2022-08-27T08:52:09.017Z,26.84
2022-08-27T08:53:09.024Z,26.82
2022-08-27T08:54:08.985Z,26.77
2022-08-27T08:55:08.434Z,26.70
2022-08-27T08:56:08.969Z,26.65
2022-08-27T08:57:08.303Z,26.61
2022-08-27T08:58:08.977Z,26.57
2022-08-27T08:59:08.276Z,26.56
2022-08-27T09:00:08.931Z,26.55
2022-08-27T09:01:09.001Z,26.58
2022-08-27T09:02:13.414Z,26.62
2022-08-27T09:03:08.651Z,26.69
2022-08-27T09:04:09.234Z,26.74
2022-08-27T09:05:08.880Z,26.79
2022-08-27T09:06:08.975Z,26.84
2022-08-27T09:07:08.862Z,26.88
2022-08-27T09:08:31.380Z,26.91
2022-08-27T09:09:09.856Z,26.92
2022-08-27T09:10:08.163Z,26.92
2022-08-27T09:11:08.145Z,26.90
2022-08-27T09:12:08.794Z,26.81
2022-08-27T09:13:08.124Z,26.70
2022-08-27T09:14:13.236Z,26.59
2022-08-27T09:15:09.304Z,26.50
2022-08-27T09:16:08.097Z,26.43
2022-08-27T09:17:11.659Z,26.38
2022-08-27T09:18:09.110Z,26.34
2022-08-27T09:19:13.024Z,26.27
2022-08-27T09:20:08.052Z,26.18
2022-08-27T09:21:10.447Z,26.09
2022-08-27T09:22:08.061Z,26.02
2022-08-27T09:23:08.697Z,25.97
2022-08-27T09:24:08.137Z,25.93
2022-08-27T09:25:08.670Z,25.92
2022-08-27T09:26:08.659Z,25.91
2022-08-27T09:27:07.987Z,25.90
2022-08-27T09:28:08.079Z,25.89
2022-08-27T09:29:08.627Z,25.89
2022-08-27T09:30:08.608Z,25.94
2022-08-27T09:31:08.819Z,26.00
2022-08-27T09:32:07.955Z,26.11
2022-08-27T09:33:08.581Z,26.28
2022-08-27T09:34:08.576Z,26.46
2022-08-27T09:35:07.941Z,26.62
2022-08-27T09:36:08.533Z,26.76
2022-08-27T09:37:08.553Z,26.85
2022-08-27T09:38:07.948Z,26.87
2022-08-27T09:39:08.523Z,26.89
2022-08-27T09:40:13.257Z,26.88
2022-08-27T09:41:09.813Z,26.93
2022-08-27T09:42:09.313Z,26.93
2022-08-27T09:43:07.813Z,26.92
2022-08-27T09:44:08.474Z,26.93
2022-08-27T09:45:07.794Z,26.92
2022-08-27T09:46:08.475Z,26.88
2022-08-27T09:47:07.791Z,26.85
2022-08-27T09:48:08.449Z,26.85
2022-08-27T09:49:08.425Z,26.85
2022-08-27T09:50:08.415Z,26.85
2022-08-27T09:51:08.397Z,26.81
2022-08-27T09:52:08.387Z,26.79
2022-08-27T09:53:08.370Z,26.76
2022-08-27T09:54:08.508Z,26.73
2022-08-27T09:55:08.370Z,26.67
2022-08-27T09:56:09.220Z,26.59
2022-08-27T09:57:07.649Z,26.47
2022-08-27T09:58:07.757Z,26.34
2022-08-27T09:59:08.312Z,26.22
2022-08-27T10:00:08.302Z,26.14
2022-08-27T10:01:07.792Z,26.07
2022-08-27T10:02:11.946Z,26.02
2022-08-27T10:03:08.262Z,25.97
2022-08-27T10:04:07.651Z,25.91
2022-08-27T10:05:08.582Z,25.83
2022-08-27T10:06:07.569Z,25.76
2022-08-27T10:07:08.223Z,25.70
2022-08-27T10:08:07.606Z,25.64
2022-08-27T10:09:08.211Z,25.60
2022-08-27T10:10:08.185Z,25.58
2022-08-27T10:11:07.533Z,25.55
2022-08-27T10:12:07.501Z,25.52
2022-08-27T10:13:10.525Z,25.45
2022-08-27T10:14:08.145Z,25.38
2022-08-27T10:15:07.509Z,25.33
2022-08-27T10:16:08.167Z,25.28
2022-08-27T10:17:08.419Z,25.25
2022-08-27T10:18:08.137Z,25.25
2022-08-27T10:19:08.096Z,25.28
2022-08-27T10:20:07.425Z,25.31
2022-08-27T10:21:08.088Z,25.37
2022-08-27T10:22:08.116Z,25.40
2022-08-27T10:23:07.399Z,25.43
2022-08-27T10:24:08.037Z,25.46
2022-08-27T10:25:07.349Z,25.49
2022-08-27T10:26:08.023Z,25.51
2022-08-27T10:27:07.371Z,25.56
2022-08-27T10:28:09.900Z,25.61
2022-08-27T10:29:07.352Z,25.69
2022-08-27T10:30:07.999Z,25.78
2022-08-27T10:31:07.287Z,25.90
2022-08-27T10:32:07.495Z,26.05
2022-08-27T10:33:07.944Z,26.19
2022-08-27T10:34:07.312Z,26.32
2022-08-27T10:35:09.011Z,26.41
2022-08-27T10:36:07.915Z,26.51
2022-08-27T10:37:07.716Z,26.61
2022-08-27T10:38:08.012Z,26.68
2022-08-27T10:39:07.218Z,26.72
2022-08-27T10:40:09.253Z,26.75
2022-08-27T10:41:07.236Z,26.75
2022-08-27T10:42:07.854Z,26.76
2022-08-27T10:43:07.185Z,26.77
2022-08-27T10:44:07.165Z,26.76
2022-08-27T10:45:07.170Z,26.79
2022-08-27T10:46:07.837Z,26.80
2022-08-27T10:47:07.199Z,26.79
2022-08-27T10:48:08.025Z,26.78
2022-08-27T10:49:07.776Z,26.77
2022-08-27T10:50:07.819Z,26.78
2022-08-27T10:51:07.747Z,26.81
2022-08-27T10:52:08.698Z,26.83
2022-08-27T10:53:07.719Z,26.86
2022-08-27T10:54:08.227Z,26.88
2022-08-27T10:55:07.712Z,26.87
2022-08-27T10:56:07.042Z,26.81
2022-08-27T10:57:26.535Z,26.74
2022-08-27T10:58:10.006Z,26.66
2022-08-27T10:59:07.960Z,26.59
2022-08-27T11:00:07.018Z,26.56
2022-08-27T11:01:07.681Z,26.56
2022-08-27T11:02:07.765Z,26.59
2022-08-27T11:03:07.621Z,26.68
2022-08-27T11:04:07.680Z,26.78
2022-08-27T11:05:06.923Z,26.92
2022-08-27T11:06:06.932Z,27.11
2022-08-27T11:07:07.583Z,27.31
2022-08-27T11:08:07.625Z,27.48
2022-08-27T11:09:07.954Z,27.60
2022-08-27T11:10:06.932Z,27.67
2022-08-27T11:11:51.490Z,27.70
2022-08-27T11:12:14.260Z,27.73
2022-08-27T11:13:08.309Z,27.77
2022-08-27T11:14:06.839Z,27.81
2022-08-27T11:15:12.278Z,27.86
2022-08-27T11:16:07.948Z,27.89
2022-08-27T11:17:07.477Z,27.89
2022-08-27T11:18:07.479Z,27.85
2022-08-27T11:19:06.777Z,27.79
2022-08-27T11:20:07.552Z,27.76
2022-08-27T11:21:07.450Z,27.74
2022-08-27T11:22:07.477Z,27.72
2022-08-27T11:23:06.741Z,27.69
2022-08-27T11:24:07.398Z,27.65
2022-08-27T11:25:07.399Z,27.61
2022-08-27T11:26:06.721Z,27.55
2022-08-27T11:27:07.380Z,27.50
2022-08-27T11:28:07.432Z,27.45
2022-08-27T11:29:07.359Z,27.37
2022-08-27T11:30:07.401Z,27.28
2022-08-27T11:31:07.361Z,27.18
2022-08-27T11:32:07.320Z,27.06
2022-08-27T11:33:07.482Z,26.91
2022-08-27T11:34:08.371Z,26.81
2022-08-27T11:35:07.284Z,26.71
2022-08-27T11:36:07.276Z,26.65
2022-08-27T11:37:06.611Z,26.57
2022-08-27T11:38:06.699Z,26.50
2022-08-27T11:39:07.897Z,26.44
2022-08-27T11:40:07.356Z,26.40
2022-08-27T11:41:07.238Z,26.35
2022-08-27T11:42:06.537Z,26.29
2022-08-27T11:43:06.525Z,26.24
2022-08-27T11:44:07.185Z,26.21
2022-08-27T11:45:08.932Z,26.21
2022-08-27T11:46:07.145Z,26.19
2022-08-27T11:47:07.195Z,26.22
2022-08-27T11:48:07.209Z,26.28
2022-08-27T11:49:07.317Z,26.32
2022-08-27T11:50:06.494Z,26.38
2022-08-27T11:51:07.116Z,26.45
2022-08-27T11:52:06.522Z,26.56
2022-08-27T11:53:06.438Z,26.68
2022-08-27T11:54:06.419Z,26.79
2022-08-27T11:55:07.075Z,26.87
2022-08-27T11:56:06.401Z,26.97
2022-08-27T11:57:06.381Z,27.08
2022-08-27T11:58:06.402Z,27.20
2022-08-27T11:59:06.411Z,27.33
2022-08-27T12:00:06.353Z,27.47
2022-08-27T12:01:08.284Z,27.60
2022-08-27T12:02:06.331Z,27.72
2022-08-27T12:03:06.360Z,27.85
2022-08-27T12:04:07.770Z,27.96
2022-08-27T12:05:06.974Z,28.11
2022-08-27T12:06:06.953Z,28.25
2022-08-27T12:07:06.945Z,28.33
2022-08-27T12:08:06.279Z,28.40
2022-08-27T12:09:06.303Z,28.41
2022-08-27T12:10:06.288Z,28.41
2022-08-27T12:11:06.905Z,28.40
2022-08-27T12:12:06.245Z,28.37
2022-08-27T12:13:06.893Z,28.36
2022-08-27T12:14:06.198Z,28.33
2022-08-27T12:15:06.859Z,28.32
2022-08-27T12:16:06.259Z,28.28
2022-08-27T12:17:06.848Z,28.25
2022-08-27T12:18:06.184Z,28.21
2022-08-27T12:19:06.150Z,28.15
2022-08-27T12:20:06.817Z,28.08
2022-08-27T12:21:06.811Z,27.98
2022-08-27T12:22:06.190Z,27.87
2022-08-27T12:23:06.090Z,27.77
2022-08-27T12:24:06.090Z,27.69
2022-08-27T12:25:06.150Z,27.62
2022-08-27T12:26:06.744Z,27.57
2022-08-27T12:27:06.761Z,27.49
2022-08-27T12:28:06.786Z,27.41
2022-08-27T12:29:06.054Z,27.33
2022-08-27T12:30:06.693Z,27.25
2022-08-27T12:31:06.836Z,27.19
2022-08-27T12:32:06.022Z,27.14
2022-08-27T12:33:06.951Z,27.12
2022-08-27T12:34:06.654Z,27.13
2022-08-27T12:35:06.645Z,27.18
2022-08-27T12:36:05.982Z,27.25
2022-08-27T12:37:07.502Z,27.33
2022-08-27T12:38:06.611Z,27.41
2022-08-27T12:39:06.603Z,27.51
2022-08-27T12:40:06.623Z,27.61
2022-08-27T12:41:06.586Z,27.72
2022-08-27T12:42:06.578Z,27.86
2022-08-27T12:43:05.914Z,27.99
2022-08-27T12:44:05.877Z,28.07
2022-08-27T12:45:05.889Z,28.12
2022-08-27T12:46:06.927Z,28.16
2022-08-27T12:47:06.622Z,28.21
2022-08-27T12:48:05.828Z,28.26
2022-08-27T12:49:37.829Z,28.30
2022-08-27T12:50:06.828Z,28.33
2022-08-27T12:51:05.800Z,28.35
2022-08-27T12:52:05.957Z,28.33
2022-08-27T12:53:06.460Z,28.30